Santa Cruz de la Sierra, Bolivia
Current Conditions -  °F | °C
As of 1:00 PM on Sunday 23 Nov 2014 (Local Time) from SLET Reporting Station
Drizzle Drizzle  
Wind Chill: 72°   Ceiling: 600
Heat Index: 72°   Visibility: 2.1mi
Dew Point: 70°   Wind: 7mph
Humidity: 94%   Direction: 160°SSE
Pressure: 29.91"   Gusts: NA
Location:  17.79°S, 63.2°W
Report Text: SLET 231700Z 16006KT 3500 -DZ BKN006 BKN023 OVC070 22/21 Q1013
Loading
Personal Weather Stations






























Interactive Weather Map New forecast layout! Learn more

10-Day Weather Forecast

Advertisements
Track Severe Weather on mobile